createdAt,value
2018-04-22T00:09:07.063Z,4
2018-04-22T00:19:07.140Z,4
2018-04-22T00:29:07.076Z,4
2018-04-22T00:39:07.141Z,4
2018-04-22T00:49:07.086Z,4
2018-04-22T00:59:07.166Z,4
2018-04-22T01:09:07.173Z,4
2018-04-22T01:19:07.094Z,5
2018-04-22T01:29:07.106Z,5
2018-04-22T01:39:07.177Z,5
2018-04-22T01:49:07.150Z,5
2018-04-22T01:59:07.112Z,5
2018-04-22T02:09:07.181Z,5
2018-04-22T02:19:07.163Z,4
2018-04-22T02:29:07.218Z,6
2018-04-22T02:39:07.206Z,4
2018-04-22T02:49:07.247Z,5
2018-04-22T02:59:07.215Z,5
2018-04-22T03:09:07.280Z,6
2018-04-22T03:19:07.269Z,5
2018-04-22T03:29:07.269Z,6
2018-04-22T03:39:07.220Z,5
2018-04-22T03:49:07.289Z,6
2018-04-22T03:59:07.280Z,6
2018-04-22T04:09:07.364Z,5
2018-04-22T04:19:07.274Z,6
2018-04-22T04:29:07.220Z,6
2018-04-22T04:39:07.289Z,6
2018-04-22T04:49:07.239Z,6
2018-04-22T04:59:07.299Z,6
2018-04-22T05:09:07.363Z,6
2018-04-22T05:19:07.392Z,7
2018-04-22T05:29:07.368Z,7
2018-04-22T05:39:07.410Z,6
2018-04-22T05:49:07.371Z,6
2018-04-22T05:59:07.457Z,6
2018-04-22T06:09:07.432Z,6
2018-04-22T06:19:07.453Z,7
2018-04-22T06:29:07.411Z,7
2018-04-22T06:39:07.459Z,7
2018-04-22T06:49:07.435Z,8
2018-04-22T06:59:07.501Z,9
2018-04-22T07:09:07.475Z,8
2018-04-22T07:19:07.497Z,8
2018-04-22T07:29:07.522Z,10
2018-04-22T07:39:07.403Z,10
2018-04-22T07:49:07.472Z,10
2018-04-22T07:59:07.478Z,10
2018-04-22T08:09:07.581Z,11
2018-04-22T08:19:08.037Z,12
2018-04-22T08:29:08.370Z,13
2018-04-22T08:39:07.543Z,15
2018-04-22T08:49:07.521Z,14
2018-04-22T08:59:08.042Z,14
2018-04-22T09:09:09.675Z,15
2018-04-22T09:19:07.625Z,16
2018-04-22T09:29:39.460Z,17
2018-04-22T09:39:07.562Z,17
2018-04-22T09:49:07.846Z,19
2018-04-22T09:59:07.565Z,20
2018-04-22T10:09:07.541Z,20
2018-04-22T10:19:07.764Z,20
2018-04-22T10:29:13.325Z,20
2018-04-22T10:39:07.765Z,20
2018-04-22T10:49:08.688Z,20
2018-04-22T10:59:07.747Z,18
2018-04-22T11:09:30.306Z,18
2018-04-22T11:19:08.669Z,16
2018-04-22T11:29:07.594Z,16
2018-04-22T11:39:07.512Z,15
2018-04-22T11:49:07.525Z,16
2018-04-22T11:59:07.496Z,11
2018-04-22T12:09:07.592Z,7
2018-04-22T12:19:07.643Z,7
2018-04-22T12:29:07.741Z,8
2018-04-22T12:39:07.631Z,7
2018-04-22T12:49:07.823Z,7
2018-04-22T12:59:07.627Z,8
2018-04-22T13:09:07.698Z,7
2018-04-22T13:19:07.579Z,6
2018-04-22T13:29:07.620Z,6
2018-04-22T13:39:07.598Z,6
2018-04-22T13:49:07.659Z,6
2018-04-22T13:59:07.635Z,6
2018-04-22T14:09:07.623Z,7
2018-04-22T14:19:07.617Z,7
2018-04-22T14:29:07.611Z,7
2018-04-22T14:39:07.569Z,10
2018-04-22T14:49:07.626Z,7
2018-04-22T14:59:07.659Z,5
2018-04-22T15:09:07.625Z,5
2018-04-22T15:19:07.699Z,4
2018-04-22T15:29:08.158Z,5
2018-04-22T15:39:07.663Z,7
2018-04-22T15:49:07.872Z,5
2018-04-22T15:59:07.636Z,7
2018-04-22T16:09:07.877Z,5
2018-04-22T16:19:07.610Z,4
2018-04-22T16:29:08.224Z,5
2018-04-22T16:39:07.585Z,4
2018-04-22T16:49:07.699Z,3
2018-04-22T16:59:07.578Z,6
2018-04-22T17:09:07.971Z,3
2018-04-22T17:19:07.647Z,2
2018-04-22T17:29:08.413Z,2
2018-04-22T17:39:07.771Z,2
2018-04-22T17:49:07.851Z,3
2018-04-22T17:59:07.920Z,4
2018-04-22T18:09:07.776Z,4
2018-04-22T18:19:07.604Z,4
2018-04-22T18:29:07.934Z,4
2018-04-22T18:39:08.301Z,5
2018-04-22T18:49:13.848Z,7
2018-04-22T18:59:07.762Z,8
2018-04-22T19:09:11.478Z,8
2018-04-22T19:19:08.483Z,9
2018-04-22T19:29:07.877Z,12
2018-04-22T19:39:08.243Z,12
2018-04-22T19:49:08.856Z,13
2018-04-22T19:59:07.768Z,14
2018-04-22T20:09:08.591Z,15
2018-04-22T20:19:07.860Z,16
2018-04-22T20:29:07.862Z,16
2018-04-22T20:39:10.497Z,19
2018-04-22T20:49:07.825Z,19
2018-04-22T20:59:07.923Z,22
2018-04-22T21:09:08.346Z,20
2018-04-22T21:19:07.911Z,24
2018-04-22T21:29:07.880Z,27
2018-04-22T21:39:07.986Z,28
2018-04-22T21:49:08.108Z,27
2018-04-22T21:59:07.620Z,28
2018-04-22T22:09:07.666Z,32
2018-04-22T22:19:08.204Z,33
2018-04-22T22:35:35.769Z,33
2018-04-22T22:39:07.587Z,35
2018-04-22T22:49:07.634Z,35
2018-04-22T22:59:07.684Z,35
2018-04-22T23:09:28.633Z,37
2018-04-22T23:19:21.447Z,36
2018-04-22T23:29:21.991Z,34
2018-04-22T23:39:07.589Z,38
2018-04-22T23:49:07.676Z,38
2018-04-22T23:59:08.219Z,44
